sensor_id;sensor_type;location;lat;lon;timestamp;pressure;altitude;pressure_sealevel;temperature;humidity
33506;BME280;19843;51.040;13.782;2023-05-09T00:02:25;101114.16;;;9.60;61.37
33506;BME280;19843;51.040;13.782;2023-05-09T00:04:53;101116.66;;;9.47;60.99
33506;BME280;19843;51.040;13.782;2023-05-09T00:07:21;101114.69;;;9.48;61.12
33506;BME280;19843;51.040;13.782;2023-05-09T00:09:49;101120.47;;;9.52;60.49
33506;BME280;19843;51.040;13.782;2023-05-09T00:12:16;101113.25;;;9.51;60.23
33506;BME280;19843;51.040;13.782;2023-05-09T00:14:45;101111.50;;;9.55;60.23
33506;BME280;19843;51.040;13.782;2023-05-09T00:17:16;101111.28;;;9.51;59.96
33506;BME280;19843;51.040;13.782;2023-05-09T00:19:44;101113.50;;;9.40;60.30
33506;BME280;19843;51.040;13.782;2023-05-09T00:22:11;101108.19;;;9.53;59.87
33506;BME280;19843;51.040;13.782;2023-05-09T00:24:39;101104.69;;;9.47;59.96
33506;BME280;19843;51.040;13.782;2023-05-09T00:27:06;101103.31;;;9.36;60.04
33506;BME280;19843;51.040;13.782;2023-05-09T00:29:34;101099.75;;;9.44;59.55
33506;BME280;19843;51.040;13.782;2023-05-09T00:32:03;101110.41;;;9.42;59.72
33506;BME280;19843;51.040;13.782;2023-05-09T00:34:31;101101.63;;;9.35;59.29
33506;BME280;19843;51.040;13.782;2023-05-09T00:36:59;101099.78;;;9.30;59.76
33506;BME280;19843;51.040;13.782;2023-05-09T00:39:26;101098.34;;;9.33;59.88
33506;BME280;19843;51.040;13.782;2023-05-09T00:41:54;101092.78;;;9.33;59.49
33506;BME280;19843;51.040;13.782;2023-05-09T00:44:22;101094.22;;;9.30;59.69
33506;BME280;19843;51.040;13.782;2023-05-09T00:46:50;101089.31;;;9.27;59.39
33506;BME280;19843;51.040;13.782;2023-05-09T00:49:19;101086.59;;;9.36;59.21
33506;BME280;19843;51.040;13.782;2023-05-09T00:51:47;101081.44;;;9.29;59.36
33506;BME280;19843;51.040;13.782;2023-05-09T00:54:15;101081.22;;;9.26;59.68
33506;BME280;19843;51.040;13.782;2023-05-09T00:56:42;101080.94;;;9.27;59.15
33506;BME280;19843;51.040;13.782;2023-05-09T00:59:11;101079.44;;;9.21;59.25
33506;BME280;19843;51.040;13.782;2023-05-09T01:01:38;101087.81;;;9.07;59.60
33506;BME280;19843;51.040;13.782;2023-05-09T01:04:06;101080.88;;;9.18;59.26
33506;BME280;19843;51.040;13.782;2023-05-09T01:06:42;101078.53;;;9.12;59.39
33506;BME280;19843;51.040;13.782;2023-05-09T01:09:19;101079.84;;;9.14;59.28
33506;BME280;19843;51.040;13.782;2023-05-09T01:11:51;101069.28;;;9.03;59.85
33506;BME280;19843;51.040;13.782;2023-05-09T01:14:29;101071.00;;;9.12;59.28
33506;BME280;19843;51.040;13.782;2023-05-09T01:17:04;101072.97;;;9.12;59.22
33506;BME280;19843;51.040;13.782;2023-05-09T01:19:48;101070.63;;;8.91;60.35
33506;BME280;19843;51.040;13.782;2023-05-09T01:22:21;101064.16;;;8.82;60.76
33506;BME280;19843;51.040;13.782;2023-05-09T01:25:08;101058.69;;;8.77;61.10
33506;BME280;19843;51.040;13.782;2023-05-09T01:27:48;101057.47;;;8.83;60.60
33506;BME280;19843;51.040;13.782;2023-05-09T01:30:19;101060.34;;;8.78;60.31
33506;BME280;19843;51.040;13.782;2023-05-09T01:32:48;101050.63;;;8.89;60.01
33506;BME280;19843;51.040;13.782;2023-05-09T01:35:19;101056.19;;;8.89;60.44
33506;BME280;19843;51.040;13.782;2023-05-09T01:37:48;101043.13;;;8.76;60.88
33506;BME280;19843;51.040;13.782;2023-05-09T01:40:19;101049.44;;;8.68;61.10
33506;BME280;19843;51.040;13.782;2023-05-09T01:42:51;101057.59;;;8.64;60.71
33506;BME280;19843;51.040;13.782;2023-05-09T01:45:20;101056.56;;;8.74;60.99
33506;BME280;19843;51.040;13.782;2023-05-09T01:47:49;101048.69;;;8.76;60.46
33506;BME280;19843;51.040;13.782;2023-05-09T01:50:18;101053.78;;;8.60;61.03
33506;BME280;19843;51.040;13.782;2023-05-09T01:52:48;101055.81;;;8.68;61.43
33506;BME280;19843;51.040;13.782;2023-05-09T01:55:16;101041.53;;;8.61;61.33
33506;BME280;19843;51.040;13.782;2023-05-09T01:57:45;101038.41;;;8.63;61.07
33506;BME280;19843;51.040;13.782;2023-05-09T02:00:14;101041.44;;;8.53;61.45
33506;BME280;19843;51.040;13.782;2023-05-09T02:02:43;101044.09;;;8.58;61.25
33506;BME280;19843;51.040;13.782;2023-05-09T02:05:13;101040.50;;;8.57;61.35
33506;BME280;19843;51.040;13.782;2023-05-09T02:07:42;101039.56;;;8.62;61.08
33506;BME280;19843;51.040;13.782;2023-05-09T02:10:11;101039.78;;;8.52;61.34
33506;BME280;19843;51.040;13.782;2023-05-09T02:12:39;101029.16;;;8.40;62.16
33506;BME280;19843;51.040;13.782;2023-05-09T02:15:07;101032.56;;;8.51;61.68
33506;BME280;19843;51.040;13.782;2023-05-09T02:17:35;101027.13;;;8.45;61.92
33506;BME280;19843;51.040;13.782;2023-05-09T02:20:05;101030.63;;;8.37;61.95
33506;BME280;19843;51.040;13.782;2023-05-09T02:22:34;101028.66;;;8.38;61.79
33506;BME280;19843;51.040;13.782;2023-05-09T02:25:02;101029.06;;;8.45;61.60
33506;BME280;19843;51.040;13.782;2023-05-09T02:27:31;101032.16;;;8.43;62.00
33506;BME280;19843;51.040;13.782;2023-05-09T02:30:02;101038.53;;;8.44;61.92
33506;BME280;19843;51.040;13.782;2023-05-09T02:32:33;101028.56;;;8.43;61.65
33506;BME280;19843;51.040;13.782;2023-05-09T02:35:04;101035.88;;;8.39;61.79
33506;BME280;19843;51.040;13.782;2023-05-09T02:37:32;101034.00;;;8.34;61.78
33506;BME280;19843;51.040;13.782;2023-05-09T02:40:00;101032.47;;;8.42;61.46
33506;BME280;19843;51.040;13.782;2023-05-09T02:42:27;101026.28;;;8.31;62.10
33506;BME280;19843;51.040;13.782;2023-05-09T02:44:55;101027.09;;;8.18;61.91
33506;BME280;19843;51.040;13.782;2023-05-09T02:47:22;101029.25;;;8.35;61.80
33506;BME280;19843;51.040;13.782;2023-05-09T02:49:51;101028.84;;;8.28;62.39
33506;BME280;19843;51.040;13.782;2023-05-09T02:52:19;101018.22;;;8.16;62.58
33506;BME280;19843;51.040;13.782;2023-05-09T02:54:47;101021.53;;;8.18;62.05
33506;BME280;19843;51.040;13.782;2023-05-09T02:57:14;101025.47;;;8.03;62.00
33506;BME280;19843;51.040;13.782;2023-05-09T02:59:42;101022.69;;;8.17;62.22
33506;BME280;19843;51.040;13.782;2023-05-09T03:02:09;101010.75;;;8.03;62.66
33506;BME280;19843;51.040;13.782;2023-05-09T03:04:37;101022.03;;;8.06;62.32
33506;BME280;19843;51.040;13.782;2023-05-09T03:07:04;101025.03;;;8.10;62.51
33506;BME280;19843;51.040;13.782;2023-05-09T03:09:33;101021.53;;;8.18;62.16
33506;BME280;19843;51.040;13.782;2023-05-09T03:12:01;101032.25;;;7.97;62.39
33506;BME280;19843;51.040;13.782;2023-05-09T03:14:29;101015.06;;;8.09;62.25
33506;BME280;19843;51.040;13.782;2023-05-09T03:16:56;101014.13;;;8.13;62.70
33506;BME280;19843;51.040;13.782;2023-05-09T03:19:24;101015.56;;;8.11;62.26
33506;BME280;19843;51.040;13.782;2023-05-09T03:21:51;101013.19;;;8.04;62.05
33506;BME280;19843;51.040;13.782;2023-05-09T03:24:18;101014.25;;;8.08;62.11
33506;BME280;19843;51.040;13.782;2023-05-09T03:26:47;101022.03;;;8.06;62.32
33506;BME280;19843;51.040;13.782;2023-05-09T03:29:15;101018.66;;;8.09;62.37
33506;BME280;19843;51.040;13.782;2023-05-09T03:31:42;101023.91;;;8.11;62.03
33506;BME280;19843;51.040;13.782;2023-05-09T03:34:09;101015.28;;;7.99;63.16
33506;BME280;19843;51.040;13.782;2023-05-09T03:36:40;101016.09;;;7.99;63.02
33506;BME280;19843;51.040;13.782;2023-05-09T03:39:08;101013.63;;;7.98;63.25
33506;BME280;19843;51.040;13.782;2023-05-09T03:41:36;101014.63;;;7.88;63.23
33506;BME280;19843;51.040;13.782;2023-05-09T03:44:05;101005.88;;;7.94;63.07
33506;BME280;19843;51.040;13.782;2023-05-09T03:46:33;101012.69;;;7.88;63.19
33506;BME280;19843;51.040;13.782;2023-05-09T03:49:00;101004.25;;;7.80;63.88
33506;BME280;19843;51.040;13.782;2023-05-09T03:51:29;101012.16;;;7.86;63.36
33506;BME280;19843;51.040;13.782;2023-05-09T03:53:57;101001.75;;;7.78;63.54
33506;BME280;19843;51.040;13.782;2023-05-09T03:56:25;101007.13;;;7.75;63.82
33506;BME280;19843;51.040;13.782;2023-05-09T03:58:52;100999.06;;;7.87;63.79
33506;BME280;19843;51.040;13.782;2023-05-09T04:01:21;101004.84;;;7.90;62.96
33506;BME280;19843;51.040;13.782;2023-05-09T04:03:49;101003.44;;;7.93;62.93
33506;BME280;19843;51.040;13.782;2023-05-09T04:06:17;101008.66;;;7.94;62.57
33506;BME280;19843;51.040;13.782;2023-05-09T04:08:44;100992.00;;;7.94;62.43
33506;BME280;19843;51.040;13.782;2023-05-09T04:11:12;100998.06;;;8.10;61.93
33506;BME280;19843;51.040;13.782;2023-05-09T04:13:39;101004.16;;;8.12;61.84
33506;BME280;19843;51.040;13.782;2023-05-09T04:16:07;101001.44;;;8.21;61.72
33506;BME280;19843;51.040;13.782;2023-05-09T04:18:36;100997.94;;;8.29;61.23
33506;BME280;19843;51.040;13.782;2023-05-09T04:21:05;101000.59;;;8.34;60.73
33506;BME280;19843;51.040;13.782;2023-05-09T04:23:32;101004.53;;;8.33;60.36
33506;BME280;19843;51.040;13.782;2023-05-09T04:26:00;101008.50;;;8.68;59.78
33506;BME280;19843;51.040;13.782;2023-05-09T04:28:27;101002.22;;;8.63;59.87
33506;BME280;19843;51.040;13.782;2023-05-09T04:30:55;100992.78;;;8.86;59.01
33506;BME280;19843;51.040;13.782;2023-05-09T04:33:22;100998.16;;;9.05;57.91
33506;BME280;19843;51.040;13.782;2023-05-09T04:35:51;101001.03;;;9.14;57.44
33506;BME280;19843;51.040;13.782;2023-05-09T04:38:20;100991.78;;;10.38;54.28
33506;BME280;19843;51.040;13.782;2023-05-09T04:40:47;100985.19;;;12.61;48.08
33506;BME280;19843;51.040;13.782;2023-05-09T04:43:15;100983.34;;;13.07;46.45
33506;BME280;19843;51.040;13.782;2023-05-09T04:45:43;100985.78;;;13.63;45.16
33506;BME280;19843;51.040;13.782;2023-05-09T04:48:11;100985.84;;;14.12;43.17
33506;BME280;19843;51.040;13.782;2023-05-09T04:50:39;100975.22;;;13.47;44.33
33506;BME280;19843;51.040;13.782;2023-05-09T04:53:08;100988.63;;;12.88;46.21
33506;BME280;19843;51.040;13.782;2023-05-09T04:55:36;100976.69;;;11.81;48.28
33506;BME280;19843;51.040;13.782;2023-05-09T04:58:03;100976.34;;;11.44;49.15
33506;BME280;19843;51.040;13.782;2023-05-09T05:00:31;100976.00;;;11.46;49.58
33506;BME280;19843;51.040;13.782;2023-05-09T05:02:58;100979.59;;;11.64;48.90
33506;BME280;19843;51.040;13.782;2023-05-09T05:05:26;100966.44;;;12.02;48.69
33506;BME280;19843;51.040;13.782;2023-05-09T05:07:54;100966.06;;;11.66;49.43
33506;BME280;19843;51.040;13.782;2023-05-09T05:10:22;100957.34;;;11.20;50.70
33506;BME280;19843;51.040;13.782;2023-05-09T05:12:50;100971.31;;;11.20;50.58
33506;BME280;19843;51.040;13.782;2023-05-09T05:15:17;100964.72;;;11.16;50.41
33506;BME280;19843;51.040;13.782;2023-05-09T05:17:45;100968.44;;;11.46;50.33
33506;BME280;19843;51.040;13.782;2023-05-09T05:20:13;100969.47;;;11.24;50.46
33506;BME280;19843;51.040;13.782;2023-05-09T05:22:40;100963.81;;;11.50;49.66
33506;BME280;19843;51.040;13.782;2023-05-09T05:25:08;100958.22;;;11.59;50.04
33506;BME280;19843;51.040;13.782;2023-05-09T05:27:37;100961.91;;;11.25;51.25
33506;BME280;19843;51.040;13.782;2023-05-09T05:30:05;100952.41;;;11.73;50.70
33506;BME280;19843;51.040;13.782;2023-05-09T05:32:33;100955.25;;;11.56;50.15
33506;BME280;19843;51.040;13.782;2023-05-09T05:35:00;100967.25;;;11.56;50.04
33506;BME280;19843;51.040;13.782;2023-05-09T05:37:30;100952.69;;;11.89;49.87
33506;BME280;19843;51.040;13.782;2023-05-09T05:39:58;100955.34;;;11.68;49.94
33506;BME280;19843;51.040;13.782;2023-05-09T05:42:25;100942.47;;;11.93;49.26
33506;BME280;19843;51.040;13.782;2023-05-09T05:44:54;100953.06;;;11.70;50.80
33506;BME280;19843;51.040;13.782;2023-05-09T05:47:21;100949.56;;;11.35;50.81
33506;BME280;19843;51.040;13.782;2023-05-09T05:49:49;100952.19;;;12.25;49.27
33506;BME280;19843;51.040;13.782;2023-05-09T05:52:17;100952.69;;;11.89;49.28
33506;BME280;19843;51.040;13.782;2023-05-09T05:54:44;100947.44;;;12.17;49.06
33506;BME280;19843;51.040;13.782;2023-05-09T05:57:11;100951.06;;;11.88;49.80
33506;BME280;19843;51.040;13.782;2023-05-09T05:59:39;100954.09;;;12.03;49.84
33506;BME280;19843;51.040;13.782;2023-05-09T06:02:08;100947.59;;;12.41;48.56
33506;BME280;19843;51.040;13.782;2023-05-09T06:04:35;100942.59;;;12.26;48.91
33506;BME280;19843;51.040;13.782;2023-05-09T06:07:03;100938.28;;;12.91;47.83
33506;BME280;19843;51.040;13.782;2023-05-09T06:09:30;100926.09;;;12.54;48.09
33506;BME280;19843;51.040;13.782;2023-05-09T06:11:57;100929.94;;;12.49;48.21
33506;BME280;19843;51.040;13.782;2023-05-09T06:14:25;100927.16;;;12.20;48.22
33506;BME280;19843;51.040;13.782;2023-05-09T06:16:52;100928.13;;;12.24;47.72
33506;BME280;19843;51.040;13.782;2023-05-09T06:19:22;100924.91;;;12.76;46.85
33506;BME280;19843;51.040;13.782;2023-05-09T06:21:49;100924.81;;;12.72;46.71
33506;BME280;19843;51.040;13.782;2023-05-09T06:24:17;100920.56;;;12.87;46.54
33506;BME280;19843;51.040;13.782;2023-05-09T06:27:00;100921.09;;;13.14;46.20
33506;BME280;19843;51.040;13.782;2023-05-09T06:29:28;100919.25;;;12.85;46.38
33506;BME280;19843;51.040;13.782;2023-05-09T06:31:55;100917.41;;;12.47;47.49
33506;BME280;19843;51.040;13.782;2023-05-09T06:34:24;100906.88;;;13.19;45.62
33506;BME280;19843;51.040;13.782;2023-05-09T06:36:51;100918.16;;;13.43;45.30
33506;BME280;19843;51.040;13.782;2023-05-09T06:39:19;100906.94;;;13.31;45.33
33506;BME280;19843;51.040;13.782;2023-05-09T06:41:46;100901.47;;;13.01;46.14
33506;BME280;19843;51.040;13.782;2023-05-09T06:44:14;100900.66;;;13.01;46.14
33506;BME280;19843;51.040;13.782;2023-05-09T06:46:41;100905.53;;;13.25;44.91
33506;BME280;19843;51.040;13.782;2023-05-09T06:49:09;100885.91;;;13.25;45.44
33506;BME280;19843;51.040;13.782;2023-05-09T06:51:40;100894.59;;;13.44;44.66
33506;BME280;19843;51.040;13.782;2023-05-09T06:54:07;100891.78;;;13.56;44.55
33506;BME280;19843;51.040;13.782;2023-05-09T06:56:35;100889.22;;;13.39;44.67
33506;BME280;19843;51.040;13.782;2023-05-09T06:59:02;100887.81;;;13.45;44.54
33506;BME280;19843;51.040;13.782;2023-05-09T07:01:30;100881.16;;;13.74;44.45
33506;BME280;19843;51.040;13.782;2023-05-09T07:03:58;100886.03;;;14.26;44.25
33506;BME280;19843;51.040;13.782;2023-05-09T07:06:25;100872.38;;;13.76;44.02
33506;BME280;19843;51.040;13.782;2023-05-09T07:08:54;100872.00;;;14.14;44.47
33506;BME280;19843;51.040;13.782;2023-05-09T07:11:22;100866.13;;;14.19;43.32
33506;BME280;19843;51.040;13.782;2023-05-09T07:13:49;100867.78;;;14.20;42.80
33506;BME280;19843;51.040;13.782;2023-05-09T07:16:16;100859.25;;;14.17;43.44
33506;BME280;19843;51.040;13.782;2023-05-09T07:18:44;100859.69;;;14.31;42.84
33506;BME280;19843;51.040;13.782;2023-05-09T07:21:11;100861.31;;;14.32;43.12
33506;BME280;19843;51.040;13.782;2023-05-09T07:23:39;100868.00;;;14.27;42.85
33506;BME280;19843;51.040;13.782;2023-05-09T07:26:07;100854.94;;;14.59;42.63
33506;BME280;19843;51.040;13.782;2023-05-09T07:28:35;100867.88;;;14.48;42.29
33506;BME280;19843;51.040;13.782;2023-05-09T07:31:03;100856.19;;;14.34;42.09
33506;BME280;19843;51.040;13.782;2023-05-09T07:33:32;100851.28;;;14.19;42.56
33506;BME280;19843;51.040;13.782;2023-05-09T07:36:01;100841.19;;;14.70;42.15
33506;BME280;19843;51.040;13.782;2023-05-09T07:38:32;100841.34;;;14.90;41.52
33506;BME280;19843;51.040;13.782;2023-05-09T07:41:00;100839.28;;;15.02;42.08
33506;BME280;19843;51.040;13.782;2023-05-09T07:43:29;100831.28;;;15.04;41.53
33506;BME280;19843;51.040;13.782;2023-05-09T07:45:58;100816.88;;;15.06;41.39
33506;BME280;19843;51.040;13.782;2023-05-09T07:48:26;100820.88;;;15.36;40.88
33506;BME280;19843;51.040;13.782;2023-05-09T07:50:53;100807.28;;;15.23;40.93
33506;BME280;19843;51.040;13.782;2023-05-09T07:53:21;100804.44;;;15.70;41.05
33506;BME280;19843;51.040;13.782;2023-05-09T07:55:48;100809.53;;;15.65;40.30
33506;BME280;19843;51.040;13.782;2023-05-09T07:58:15;100811.09;;;15.30;40.80
33506;BME280;19843;51.040;13.782;2023-05-09T08:00:44;100805.63;;;15.06;40.58
33506;BME280;19843;51.040;13.782;2023-05-09T08:03:12;100805.28;;;15.23;41.88
33506;BME280;19843;51.040;13.782;2023-05-09T08:05:39;100796.53;;;15.60;40.10
33506;BME280;19843;51.040;13.782;2023-05-09T08:08:07;100800.91;;;15.73;39.74
33506;BME280;19843;51.040;13.782;2023-05-09T08:10:35;100806.06;;;15.87;39.42
33506;BME280;19843;51.040;13.782;2023-05-09T08:13:02;100796.50;;;15.25;39.43
33506;BME280;19843;51.040;13.782;2023-05-09T08:15:29;100802.09;;;15.41;39.56
33506;BME280;19843;51.040;13.782;2023-05-09T08:17:58;100785.41;;;15.16;39.79
33506;BME280;19843;51.040;13.782;2023-05-09T08:20:26;100794.38;;;15.69;40.12
33506;BME280;19843;51.040;13.782;2023-05-09T08:22:53;100794.28;;;15.81;38.86
33506;BME280;19843;51.040;13.782;2023-05-09T08:25:21;100786.41;;;16.26;38.29
33506;BME280;19843;51.040;13.782;2023-05-09T08:27:48;100786.44;;;15.91;39.79
33506;BME280;19843;51.040;13.782;2023-05-09T08:30:18;100779.06;;;16.41;37.94
33506;BME280;19843;51.040;13.782;2023-05-09T08:32:45;100786.63;;;16.36;37.26
33506;BME280;19843;51.040;13.782;2023-05-09T08:35:14;100787.38;;;16.72;36.72
33506;BME280;19843;51.040;13.782;2023-05-09T08:37:42;100781.34;;;16.74;36.65
33506;BME280;19843;51.040;13.782;2023-05-09T08:40:10;100769.59;;;16.91;36.43
33506;BME280;19843;51.040;13.782;2023-05-09T08:42:39;100774.78;;;17.12;38.35
33506;BME280;19843;51.040;13.782;2023-05-09T08:45:08;100769.34;;;16.77;37.51
33506;BME280;19843;51.040;13.782;2023-05-09T08:47:36;100764.81;;;17.18;36.54
33506;BME280;19843;51.040;13.782;2023-05-09T08:50:06;100758.13;;;17.26;36.63
33506;BME280;19843;51.040;13.782;2023-05-09T08:52:36;100753.16;;;17.43;36.02
33506;BME280;19843;51.040;13.782;2023-05-09T08:55:04;100768.34;;;16.69;37.46
33506;BME280;19843;51.040;13.782;2023-05-09T08:57:32;100747.97;;;16.56;36.95
33506;BME280;19843;51.040;13.782;2023-05-09T09:00:01;100746.78;;;16.57;36.16
33506;BME280;19843;51.040;13.782;2023-05-09T09:02:31;100742.03;;;17.80;35.11
33506;BME280;19843;51.040;13.782;2023-05-09T09:04:58;100740.38;;;18.05;35.04
33506;BME280;19843;51.040;13.782;2023-05-09T09:07:27;100745.34;;;18.15;35.31
33506;BME280;19843;51.040;13.782;2023-05-09T09:09:58;100743.28;;;16.83;36.48
33506;BME280;19843;51.040;13.782;2023-05-09T09:12:26;100735.75;;;17.94;35.67
33506;BME280;19843;51.040;13.782;2023-05-09T09:14:55;100735.44;;;16.96;36.44
33506;BME280;19843;51.040;13.782;2023-05-09T09:17:24;100738.22;;;17.69;36.70
33506;BME280;19843;51.040;13.782;2023-05-09T09:19:55;100743.16;;;18.02;35.73
33506;BME280;19843;51.040;13.782;2023-05-09T09:22:27;100738.00;;;18.11;36.23
33506;BME280;19843;51.040;13.782;2023-05-09T09:25:00;100730.94;;;18.61;35.50
33506;BME280;19843;51.040;13.782;2023-05-09T09:27:28;100723.47;;;18.42;35.65
33506;BME280;19843;51.040;13.782;2023-05-09T09:30:05;100725.28;;;18.24;36.06
33506;BME280;19843;51.040;13.782;2023-05-09T09:32:33;100731.97;;;18.12;35.48
33506;BME280;19843;51.040;13.782;2023-05-09T09:35:04;100728.41;;;17.85;36.02
33506;BME280;19843;51.040;13.782;2023-05-09T09:37:33;100727.34;;;18.31;34.79
33506;BME280;19843;51.040;13.782;2023-05-09T09:40:03;100723.59;;;17.89;35.81
33506;BME280;19843;51.040;13.782;2023-05-09T09:42:39;100720.31;;;17.84;34.96
33506;BME280;19843;51.040;13.782;2023-05-09T09:45:10;100720.44;;;18.62;35.89
33506;BME280;19843;51.040;13.782;2023-05-09T09:47:39;100721.97;;;18.19;35.16
33506;BME280;19843;51.040;13.782;2023-05-09T09:50:10;100706.22;;;18.55;34.99
33506;BME280;19843;51.040;13.782;2023-05-09T09:52:41;100715.56;;;17.91;35.07
33506;BME280;19843;51.040;13.782;2023-05-09T09:55:10;100708.63;;;18.53;34.64
33506;BME280;19843;51.040;13.782;2023-05-09T09:57:38;100703.19;;;18.33;34.43
33506;BME280;19843;51.040;13.782;2023-05-09T10:00:10;100703.72;;;18.46;34.33
33506;BME280;19843;51.040;13.782;2023-05-09T10:02:49;100704.41;;;19.17;34.27
33506;BME280;19843;51.040;13.782;2023-05-09T10:05:21;100698.63;;;19.03;35.70
33506;BME280;19843;51.040;13.782;2023-05-09T10:07:56;100705.41;;;18.17;35.52
33506;BME280;19843;51.040;13.782;2023-05-09T10:10:29;100698.63;;;19.00;34.81
33506;BME280;19843;51.040;13.782;2023-05-09T10:13:02;100695.59;;;18.78;35.03
33506;BME280;19843;51.040;13.782;2023-05-09T10:15:31;100694.94;;;18.21;34.51
33506;BME280;19843;51.040;13.782;2023-05-09T10:18:16;100681.03;;;18.80;34.67
33506;BME280;19843;51.040;13.782;2023-05-09T10:20:45;100670.88;;;19.82;33.43
33506;BME280;19843;51.040;13.782;2023-05-09T10:23:14;100672.09;;;19.84;35.30
33506;BME280;19843;51.040;13.782;2023-05-09T10:25:46;100668.06;;;19.85;33.20
33506;BME280;19843;51.040;13.782;2023-05-09T10:28:22;100666.63;;;19.51;33.70
33506;BME280;19843;51.040;13.782;2023-05-09T10:30:55;100662.28;;;19.64;33.11
33506;BME280;19843;51.040;13.782;2023-05-09T10:33:25;100656.38;;;19.98;33.10
33506;BME280;19843;51.040;13.782;2023-05-09T10:35:57;100654.13;;;19.52;32.97
33506;BME280;19843;51.040;13.782;2023-05-09T10:38:27;100655.69;;;19.42;33.17
33506;BME280;19843;51.040;13.782;2023-05-09T10:40:56;100650.75;;;20.08;33.24
33506;BME280;19843;51.040;13.782;2023-05-09T10:43:24;100652.28;;;19.81;33.00
33506;BME280;19843;51.040;13.782;2023-05-09T10:45:52;100635.44;;;18.81;33.81
33506;BME280;19843;51.040;13.782;2023-05-09T10:48:21;100645.47;;;19.30;32.88
33506;BME280;19843;51.040;13.782;2023-05-09T10:50:49;100633.06;;;19.49;33.55
33506;BME280;19843;51.040;13.782;2023-05-09T10:53:17;100625.53;;;19.71;32.72
33506;BME280;19843;51.040;13.782;2023-05-09T10:55:48;100621.94;;;19.85;32.50
33506;BME280;19843;51.040;13.782;2023-05-09T10:58:23;100615.88;;;19.86;33.03
33506;BME280;19843;51.040;13.782;2023-05-09T11:00:53;100614.84;;;19.47;32.46
33506;BME280;19843;51.040;13.782;2023-05-09T11:03:23;100608.03;;;19.58;32.28
33506;BME280;19843;51.040;13.782;2023-05-09T11:05:52;100599.38;;;20.24;31.58
33506;BME280;19843;51.040;13.782;2023-05-09T11:08:22;100594.53;;;20.46;31.88
33506;BME280;19843;51.040;13.782;2023-05-09T11:10:50;100586.31;;;19.84;31.36
33506;BME280;19843;51.040;13.782;2023-05-09T11:13:20;100592.31;;;19.64;31.15
33506;BME280;19843;51.040;13.782;2023-05-09T11:16:06;100593.59;;;19.88;31.25
33506;BME280;19843;51.040;13.782;2023-05-09T11:18:48;100586.31;;;19.87;30.80
33506;BME280;19843;51.040;13.782;2023-05-09T11:21:16;100589.09;;;19.69;31.69
33506;BME280;19843;51.040;13.782;2023-05-09T11:23:47;100576.69;;;20.10;30.49
33506;BME280;19843;51.040;13.782;2023-05-09T11:26:14;100579.88;;;20.01;31.63
33506;BME280;19843;51.040;13.782;2023-05-09T11:28:51;100569.00;;;20.28;30.59
33506;BME280;19843;51.040;13.782;2023-05-09T11:31:19;100567.38;;;20.24;30.44
33506;BME280;19843;51.040;13.782;2023-05-09T11:33:49;100565.06;;;19.38;30.54
33506;BME280;19843;51.040;13.782;2023-05-09T11:36:21;100556.72;;;19.67;31.66
33506;BME280;19843;51.040;13.782;2023-05-09T11:39:03;100547.53;;;20.31;30.92
33506;BME280;19843;51.040;13.782;2023-05-09T11:41:39;100541.84;;;20.16;30.95
33506;BME280;19843;51.040;13.782;2023-05-09T11:44:13;100540.63;;;20.10;30.85
33506;BME280;19843;51.040;13.782;2023-05-09T11:46:41;100541.19;;;19.32;30.76
33506;BME280;19843;51.040;13.782;2023-05-09T11:49:09;100535.00;;;19.12;31.04
33506;BME280;19843;51.040;13.782;2023-05-09T11:51:38;100518.38;;;20.12;30.06
33506;BME280;19843;51.040;13.782;2023-05-09T11:54:06;100525.56;;;19.74;30.31
33506;BME280;19843;51.040;13.782;2023-05-09T11:56:34;100519.16;;;19.91;31.07
33506;BME280;19843;51.040;13.782;2023-05-09T11:59:02;100511.09;;;20.15;30.09
33506;BME280;19843;51.040;13.782;2023-05-09T12:01:31;100496.13;;;20.54;30.02
33506;BME280;19843;51.040;13.782;2023-05-09T12:04:00;100497.75;;;20.19;29.73
33506;BME280;19843;51.040;13.782;2023-05-09T12:06:29;100503.00;;;20.35;30.18
33506;BME280;19843;51.040;13.782;2023-05-09T12:08:58;100499.75;;;20.40;29.99
33506;BME280;19843;51.040;13.782;2023-05-09T12:11:28;100492.06;;;20.44;29.24
33506;BME280;19843;51.040;13.782;2023-05-09T12:13:57;100488.81;;;20.17;31.01
33506;BME280;19843;51.040;13.782;2023-05-09T12:16:24;100482.34;;;20.13;30.30
33506;BME280;19843;51.040;13.782;2023-05-09T12:18:53;100497.75;;;20.23;30.42
33506;BME280;19843;51.040;13.782;2023-05-09T12:21:21;100489.63;;;20.25;30.01
33506;BME280;19843;51.040;13.782;2023-05-09T12:23:48;100476.25;;;20.07;29.10
33506;BME280;19843;51.040;13.782;2023-05-09T12:26:20;100487.59;;;20.71;29.87
33506;BME280;19843;51.040;13.782;2023-05-09T12:28:48;100480.75;;;20.37;29.84
33506;BME280;19843;51.040;13.782;2023-05-09T12:31:16;100476.66;;;19.91;30.14
33506;BME280;19843;51.040;13.782;2023-05-09T12:33:44;100463.31;;;20.31;30.51
33506;BME280;19843;51.040;13.782;2023-05-09T12:36:15;100456.03;;;20.37;29.79
33506;BME280;19843;51.040;13.782;2023-05-09T12:38:51;100471.03;;;20.41;29.66
33506;BME280;19843;51.040;13.782;2023-05-09T12:41:19;100464.13;;;20.32;29.55
33506;BME280;19843;51.040;13.782;2023-05-09T12:43:55;100458.06;;;20.37;29.12
33506;BME280;19843;51.040;13.782;2023-05-09T12:46:23;100450.38;;;20.48;28.98
33506;BME280;19843;51.040;13.782;2023-05-09T12:48:51;100452.69;;;20.96;29.77
33506;BME280;19843;51.040;13.782;2023-05-09T12:51:20;100450.34;;;20.55;29.27
33506;BME280;19843;51.040;13.782;2023-05-09T12:53:48;100448.19;;;21.02;29.64